Time;durP1;ratioP1;P1;durP2;ratioP2;P2;SDS_P1;SDS_P2;PMS_P1;PMS_P2;Temp;Humidity;BMP_temperature;BMP_pressure;BME280_temperature;BME280_humidity;BME280_pressure;Samples;Min_cycle;Max_cycle;Signal;HPM_P1;HPM_P2
2021/07/08 00:00:42;;;;;;;8.30;6.50;;;16.30;99.90;;;;;;5072797;28;20377;-85
2021/07/08 00:03:07;;;;;;;7.90;6.70;;;16.30;99.90;;;;;;5091202;28;20467;-87
2021/07/08 00:05:38;;;;;;;9.75;7.53;;;16.20;99.90;;;;;;5106521;28;20560;-85
2021/07/08 00:08:04;;;;;;;10.48;7.07;;;16.10;99.90;;;;;;5071632;28;20404;-86
2021/07/08 00:10:35;;;;;;;7.90;6.72;;;16.10;99.90;;;;;;5071759;28;20376;-86
2021/07/08 00:13:01;;;;;;;7.82;6.85;;;16.00;99.90;;;;;;5071687;28;20381;-87
2021/07/08 00:15:33;;;;;;;8.73;6.93;;;16.00;99.90;;;;;;5105296;28;20434;-86
2021/07/08 00:18:05;;;;;;;9.30;7.28;;;16.00;99.90;;;;;;5089244;28;20377;-87
2021/07/08 00:20:31;;;;;;;9.07;7.70;;;15.90;99.90;;;;;;5089712;28;20381;-85
2021/07/08 00:23:04;;;;;;;8.70;7.20;;;15.90;99.90;;;;;;5090513;28;20441;-85
2021/07/08 00:25:46;;;;;;;7.57;6.88;;;15.80;99.90;;;;;;5072216;28;20403;-85
2021/07/08 00:28:15;;;;;;;7.20;6.60;;;15.80;99.90;;;;;;5074340;28;20396;-88
2021/07/08 00:30:46;;;;;;;7.53;6.38;;;15.90;99.90;;;;;;5077871;28;20385;-84
2021/07/08 00:33:13;;;;;;;10.52;7.35;;;15.90;99.90;;;;;;5075060;28;20459;-87
2021/07/08 00:36:01;;;;;;;7.37;6.67;;;15.90;99.90;;;;;;5072884;28;20407;-87
2021/07/08 00:38:27;;;;;;;9.43;7.40;;;15.80;99.90;;;;;;5076695;28;20369;-88
2021/07/08 00:40:53;;;;;;;8.35;7.18;;;15.80;99.90;;;;;;5081884;28;20373;-86
2021/07/08 00:43:18;;;;;;;7.17;6.57;;;15.80;99.90;;;;;;5088935;28;20906;-85
2021/07/08 00:45:45;;;;;;;8.23;6.47;;;15.80;99.90;;;;;;5073222;28;20436;-86
2021/07/08 00:48:11;;;;;;;9.85;6.55;;;15.80;99.90;;;;;;5075031;28;20405;-87
2021/07/08 00:50:46;;;;;;;7.28;6.20;;;15.80;99.90;;;;;;5079274;28;20719;-87
2021/07/08 00:53:17;;;;;;;7.30;6.27;;;15.70;99.90;;;;;;5079695;28;20400;-88
2021/07/08 00:55:52;;;;;;;8.70;6.28;;;15.70;99.90;;;;;;5074851;28;20385;-87
2021/07/08 00:58:18;;;;;;;7.80;7.00;;;15.60;99.90;;;;;;5072686;28;20800;-85
2021/07/08 01:00:44;;;;;;;7.78;6.65;;;15.60;99.90;;;;;;5072341;28;20369;-87
2021/07/08 01:03:12;;;;;;;7.13;6.53;;;15.60;99.90;;;;;;5071219;28;20408;-86
2021/07/08 01:05:41;;;;;;;7.05;6.35;;;15.60;99.90;;;;;;5104985;28;20761;-84
2021/07/08 01:08:08;;;;;;;8.18;6.57;;;15.60;99.90;;;;;;5070945;28;20416;-85
2021/07/08 01:10:34;;;;;;;6.55;5.88;;;15.60;99.90;;;;;;5089251;28;20525;-85
2021/07/08 01:13:00;;;;;;;7.30;6.43;;;15.60;99.90;;;;;;5070974;28;20763;-84
2021/07/08 01:15:27;;;;;;;7.13;6.43;;;15.60;99.90;;;;;;5070385;28;20376;-88
2021/07/08 01:17:52;;;;;;;7.47;6.60;;;15.60;99.90;;;;;;5089062;28;20869;-85
2021/07/08 01:20:22;;;;;;;7.20;6.50;;;15.60;99.90;;;;;;5069497;28;20376;-85
2021/07/08 01:22:57;;;;;;;7.15;6.45;;;15.60;99.90;;;;;;5070496;28;20491;-85
2021/07/08 01:25:37;;;;;;;7.10;6.47;;;15.50;99.90;;;;;;5070551;28;20862;-86
2021/07/08 01:28:06;;;;;;;7.55;6.75;;;15.60;99.90;;;;;;5088750;28;20483;-86
2021/07/08 01:30:32;;;;;;;9.20;6.45;;;15.50;99.90;;;;;;5074806;28;20754;-87
2021/07/08 01:32:59;;;;;;;7.40;6.75;;;15.50;99.90;;;;;;5092763;28;20376;-85
2021/07/08 01:35:25;;;;;;;7.03;6.38;;;15.40;99.90;;;;;;5092539;28;20376;-86
2021/07/08 01:37:51;;;;;;;6.90;6.25;;;15.40;99.90;;;;;;5074721;28;20386;-84
2021/07/08 01:40:18;;;;;;;7.20;6.50;;;15.40;99.90;;;;;;5074430;28;20906;-85
2021/07/08 01:42:45;;;;;;;7.63;6.50;;;15.40;99.90;;;;;;5074353;28;20390;-86
2021/07/08 01:45:13;;;;;;;9.43;6.78;;;15.40;99.90;;;;;;5074595;28;20368;-85
2021/07/08 01:47:39;;;;;;;7.43;6.72;;;15.40;99.90;;;;;;5092624;28;20483;-87
2021/07/08 01:50:06;;;;;;;8.77;6.27;;;15.40;99.90;;;;;;5074340;28;20798;-86
2021/07/08 01:52:33;;;;;;;7.05;6.45;;;15.40;99.90;;;;;;5073725;28;20384;-85
2021/07/08 01:54:58;;;;;;;7.95;6.80;;;15.40;99.90;;;;;;5092572;28;20448;-85
2021/07/08 01:57:24;;;;;;;7.77;6.70;;;15.40;99.90;;;;;;5074382;28;20411;-84
2021/07/08 01:59:49;;;;;;;7.88;7.03;;;15.40;99.90;;;;;;5092156;28;20391;-85
2021/07/08 02:02:16;;;;;;;7.40;6.53;;;15.40;99.90;;;;;;5074170;28;20369;-84
2021/07/08 02:04:41;;;;;;;7.63;6.43;;;15.40;99.90;;;;;;5108179;28;20377;-86
2021/07/08 02:07:07;;;;;;;7.63;7.03;;;15.50;99.90;;;;;;5073712;28;20413;-85
2021/07/08 02:09:33;;;;;;;10.18;7.30;;;15.40;99.90;;;;;;5073743;28;20403;-87
2021/07/08 02:11:59;;;;;;;8.27;7.37;;;15.40;99.90;;;;;;5092292;28;20364;-86
2021/07/08 02:14:28;;;;;;;7.97;7.28;;;15.30;99.90;;;;;;5092141;28;20372;-84
2021/07/08 02:16:55;;;;;;;10.00;7.68;;;15.30;99.90;;;;;;5073917;28;20708;-84
2021/07/08 02:19:21;;;;;;;7.68;6.88;;;15.40;99.90;;;;;;5073862;28;20904;-86
2021/07/08 02:21:47;;;;;;;12.37;7.80;;;15.50;99.90;;;;;;5092409;28;20384;-86
2021/07/08 02:24:12;;;;;;;8.25;7.55;;;15.60;99.90;;;;;;5092046;28;20407;-86
2021/07/08 02:26:38;;;;;;;8.63;7.78;;;15.60;99.90;;;;;;5091729;28;20457;-85
2021/07/08 02:29:04;;;;;;;9.10;8.20;;;15.60;99.90;;;;;;5091552;28;20874;-85
2021/07/08 02:31:29;;;;;;;8.30;7.55;;;15.60;99.90;;;;;;5073497;28;20380;-87
2021/07/08 02:33:55;;;;;;;11.63;8.40;;;15.60;99.90;;;;;;5091902;28;20373;-86
2021/07/08 02:36:20;;;;;;;9.20;8.07;;;15.70;99.90;;;;;;5091927;28;20380;-86
2021/07/08 02:38:46;;;;;;;8.53;7.73;;;15.70;99.90;;;;;;5073408;28;20377;-86
2021/07/08 02:41:12;;;;;;;8.45;7.47;;;15.70;99.90;;;;;;5073333;28;20391;-87
2021/07/08 02:43:37;;;;;;;10.38;8.30;;;15.70;99.90;;;;;;5073385;28;20380;-86
2021/07/08 02:46:03;;;;;;;8.03;7.37;;;15.80;99.90;;;;;;5073280;28;20388;-85
2021/07/08 02:48:29;;;;;;;11.20;8.45;;;15.80;99.90;;;;;;5106755;28;20440;-85
2021/07/08 02:50:56;;;;;;;8.60;7.80;;;15.70;99.90;;;;;;5091522;28;20361;-86
2021/07/08 02:53:22;;;;;;;9.10;7.88;;;15.80;99.90;;;;;;5091464;28;20387;-85
2021/07/08 02:55:49;;;;;;;8.60;7.90;;;15.80;99.90;;;;;;5091521;28;20368;-85
2021/07/08 02:58:14;;;;;;;12.65;8.52;;;15.70;99.90;;;;;;5072890;28;20392;-84
2021/07/08 03:00:40;;;;;;;8.88;8.07;;;15.70;99.90;;;;;;5091129;28;20376;-85
2021/07/08 03:03:06;;;;;;;9.48;8.13;;;15.60;99.90;;;;;;5073131;28;20734;-83
2021/07/08 03:05:32;;;;;;;11.10;9.30;;;15.60;99.90;;;;;;5091478;28;20782;-85
2021/07/08 03:07:58;;;;;;;9.40;8.60;;;15.70;99.90;;;;;;5072515;28;20404;-83
2021/07/08 03:10:26;;;;;;;10.10;9.20;;;15.80;99.90;;;;;;5091226;28;20377;-84
2021/07/08 03:12:53;;;;;;;11.03;9.93;;;15.80;99.90;;;;;;5073083;28;20376;-84
2021/07/08 03:15:19;;;;;;;10.50;9.48;;;15.70;99.90;;;;;;5073196;28;20441;-84
2021/07/08 03:17:46;;;;;;;14.10;10.23;;;15.80;99.90;;;;;;5090800;28;20742;-84
2021/07/08 03:20:24;;;;;;;9.95;9.00;;;15.70;99.90;;;;;;5090460;28;20391;-84
2021/07/08 03:22:51;;;;;;;9.02;8.20;;;15.80;99.90;;;;;;5072891;28;20376;-84
2021/07/08 03:25:18;;;;;;;10.75;8.48;;;15.90;99.90;;;;;;5090957;28;20376;-84
2021/07/08 03:27:45;;;;;;;9.20;8.40;;;16.00;99.90;;;;;;5090036;28;20400;-83
2021/07/08 03:30:13;;;;;;;8.85;8.00;;;16.00;99.90;;;;;;5090741;28;20461;-84
2021/07/08 03:32:40;;;;;;;8.75;8.00;;;16.00;99.90;;;;;;5090460;28;20394;-85
2021/07/08 03:35:07;;;;;;;12.10;9.10;;;16.00;99.90;;;;;;5072486;28;20372;-83
2021/07/08 03:37:33;;;;;;;10.63;8.55;;;16.00;99.90;;;;;;5094995;28;20399;-83
2021/07/08 03:39:59;;;;;;;9.02;8.20;;;16.00;99.90;;;;;;5070386;28;20765;-83
2021/07/08 03:42:24;;;;;;;9.35;7.35;;;16.00;99.90;;;;;;5070041;28;20382;-83
2021/07/08 03:44:51;;;;;;;8.50;7.60;;;16.20;99.90;;;;;;5070509;28;20404;-83
2021/07/08 03:47:16;;;;;;;8.20;7.50;;;16.30;99.90;;;;;;5060700;28;20405;-83
2021/07/08 03:49:42;;;;;;;8.47;7.40;;;16.30;99.90;;;;;;5090193;28;20380;-83
2021/07/08 03:52:08;;;;;;;8.00;7.25;;;16.40;99.90;;;;;;5071272;28;20753;-84
2021/07/08 03:54:33;;;;;;;10.53;7.60;;;16.40;99.90;;;;;;5090555;28;20412;-83
2021/07/08 03:56:59;;;;;;;7.70;6.90;;;16.40;99.90;;;;;;5105139;28;20392;-84
2021/07/08 03:59:25;;;;;;;7.17;6.60;;;16.40;99.90;;;;;;5072148;28;20381;-84
2021/07/08 04:01:50;;;;;;;7.27;6.63;;;16.50;99.90;;;;;;5072167;28;20929;-84
2021/07/08 04:04:16;;;;;;;8.13;7.00;;;16.60;99.90;;;;;;5089882;28;20364;-84
2021/07/08 04:06:41;;;;;;;6.93;6.32;;;16.70;99.90;;;;;;5089753;28;20488;-84
2021/07/08 04:09:07;;;;;;;7.27;6.17;;;16.90;99.90;;;;;;5071908;28;20388;-83
2021/07/08 04:11:33;;;;;;;7.15;6.18;;;16.80;99.90;;;;;;5089804;28;20942;-84
2021/07/08 04:13:59;;;;;;;7.70;6.82;;;;;;;;;;5089787;28;20381;-84
2021/07/08 04:16:25;;;;;;;7.65;6.95;;;;;;;;;;5089958;28;20418;-84
2021/07/08 04:18:51;;;;;;;6.93;6.35;;;;;;;;;;5071467;28;20399;-85
2021/07/08 04:21:17;;;;;;;6.95;6.25;;;;;;;;;;5071458;28;20389;-84
2021/07/08 04:23:43;;;;;;;9.32;6.63;;;;;;;;;;5071788;28;20384;-84
2021/07/08 04:26:09;;;;;;;5.95;5.47;;;;;;;;;;5071081;28;20429;-84
2021/07/08 04:28:37;;;;;;;7.07;6.47;;;;;;;;;;5071215;28;20436;-84
2021/07/08 04:31:03;;;;;;;6.90;6.20;;;;;;;;;;5071364;28;20412;-85
2021/07/08 04:33:29;;;;;;;6.25;5.72;;;;;;;;;;5089878;28;20443;-84
2021/07/08 04:35:55;;;;;;;6.03;5.55;;;;;;;;;;5089152;28;20905;-85
2021/07/08 04:38:22;;;;;;;5.50;5.10;;;;;;;;;;5071276;28;20364;-86
2021/07/08 04:40:48;;;;;;;6.00;5.32;;;;;;;;;;5073069;28;20369;-84
2021/07/08 04:43:14;;;;;;;6.43;5.33;;;;;;;;;;5093881;28;20437;-86
2021/07/08 04:45:40;;;;;;;6.88;5.40;;;;;;;;;;5075142;28;20376;-83
2021/07/08 04:48:07;;;;;;;5.15;4.68;;;;;;;;;;5089595;28;20400;-83
2021/07/08 04:50:34;;;;;;;5.97;4.57;;;;;;;;;;5090148;28;20909;-86
2021/07/08 04:53:00;;;;;;;6.32;4.68;;;;;;;;;;5072873;28;20388;-83
2021/07/08 04:55:26;;;;;;;7.28;4.60;;;;;;;;;;5088824;28;20383;-83
2021/07/08 04:57:53;;;;;;;4.93;4.10;;;;;;;;;;5089236;28;20379;-83
2021/07/08 05:00:21;;;;;;;5.70;4.30;;;;;;;;;;5089358;28;20463;-84
2021/07/08 05:02:47;;;;;;;5.32;3.67;;;;;;;;;;5070360;28;20799;-85
2021/07/08 05:05:14;;;;;;;4.10;3.70;;;;;;;;;;5088781;28;20463;-85
2021/07/08 05:07:40;;;;;;;4.40;3.75;;;;;;;;;;5070723;28;20518;-85
2021/07/08 05:10:07;;;;;;;5.43;3.92;;;;;;;;;;5070709;28;20353;-85
2021/07/08 05:12:33;;;;;;;4.53;3.92;;;;;;;;;;5088619;28;20410;-89
2021/07/08 05:14:59;;;;;;;7.70;4.30;;;;;;;;;;5070832;28;20416;-86
2021/07/08 05:17:25;;;;;;;4.17;3.77;;;;;;;;;;5088594;28;20373;-85
2021/07/08 05:19:52;;;;;;;4.23;3.53;;;;;;;;;;5088412;28;21217;-83
2021/07/08 05:22:21;;;;;;;4.13;3.83;;;;;;;;;;5070164;28;20408;-82
2021/07/08 05:24:47;;;;;;;4.17;3.57;;;;;;;;;;5088874;28;20373;-83
2021/07/08 05:27:16;;;;;;;4.75;3.58;;;;;;;;;;5088939;28;20432;-82
2021/07/08 05:29:43;;;;;;;4.75;3.35;;;;;;;;;;5073989;28;20738;-83
2021/07/08 05:32:09;;;;;;;4.30;3.55;;;;;;;;;;5089510;28;20373;-84
2021/07/08 05:34:35;;;;;;;3.75;3.08;;;;;;;;;;5070973;28;20408;-84
2021/07/08 05:37:01;;;;;;;5.10;3.60;;;;;;;;;;5089403;28;20399;-83
2021/07/08 05:39:27;;;;;;;4.40;3.65;;;;;;;;;;5070399;28;20376;-84
2021/07/08 05:41:53;;;;;;;3.90;3.60;;;;;;;;;;5070904;28;20383;-84
2021/07/08 05:44:19;;;;;;;6.15;3.80;;;;;;;;;;5088767;28;20373;-85
2021/07/08 05:46:45;;;;;;;5.40;4.07;;;;;;;;;;5070385;28;20361;-83
2021/07/08 05:49:11;;;;;;;4.10;3.30;;;;;;;;;;5088970;28;20727;-83
2021/07/08 05:51:37;;;;;;;3.92;3.58;;;;;;;;;;5088540;28;20361;-84
2021/07/08 05:54:03;;;;;;;4.13;3.30;;;;;;;;;;5089651;28;20386;-83
2021/07/08 05:56:29;;;;;;;6.07;3.67;;;;;;;;;;5089653;28;20388;-82
2021/07/08 05:58:55;;;;;;;5.17;3.53;;;;;;;;;;5070569;28;20882;-85
2021/07/08 06:01:21;;;;;;;4.68;3.60;;;;;;;;;;5088926;28;20410;-84
2021/07/08 06:03:48;;;;;;;4.90;3.17;;;;;;;;;;5071199;28;20468;-84
2021/07/08 06:06:14;;;;;;;3.40;3.10;;;;;;;;;;5070400;28;20376;-82
2021/07/08 06:08:40;;;;;;;4.45;3.15;;;;;;;;;;5070768;28;20408;-83
2021/07/08 06:11:06;;;;;;;4.78;3.20;;;;;;;;;;5071174;28;20393;-83
2021/07/08 06:13:32;;;;;;;3.90;3.20;;;;;;;;;;5088428;28;20382;-82
2021/07/08 06:15:58;;;;;;;5.13;3.38;;;;;;;;;;5092214;28;20417;-83
2021/07/08 06:18:24;;;;;;;3.97;3.40;;;;;;;;;;5074524;28;20874;-84
2021/07/08 06:20:50;;;;;;;4.57;3.42;;;;;;;;;;5092250;28;20376;-85
2021/07/08 06:23:19;;;;;;;4.10;3.30;;;;;;;;;;5074549;28;20459;-84
2021/07/08 06:25:45;;;;;;;3.80;3.33;;;;;;;;;;5074597;28;20903;-83
2021/07/08 06:28:11;;;;;;;3.53;3.22;;;;;;;;;;5092108;28;20400;-83
2021/07/08 06:30:37;;;;;;;4.05;3.38;;;;;;;;;;5074085;28;20802;-83
2021/07/08 06:33:03;;;;;;;4.00;3.60;;;;;;;;;;5073604;28;20438;-83
2021/07/08 06:35:29;;;;;;;4.23;3.50;;;;;;;;;;5073971;28;20365;-82
2021/07/08 06:37:55;;;;;;;5.68;3.42;;;;;;;;;;5091882;28;20854;-84
2021/07/08 06:40:21;;;;;;;4.65;3.33;;;;;;;;;;5092129;28;20372;-87
2021/07/08 06:42:47;;;;;;;3.80;3.20;;;;;;;;;;5073540;28;20391;-82
2021/07/08 06:45:15;;;;;;;4.05;3.30;;;;;;;;;;5091868;28;20838;-80
2021/07/08 06:47:44;;;;;;;4.90;3.40;;;;;;;;;;5073709;28;20766;-84
2021/07/08 06:50:12;;;;;;;5.15;3.63;;;;;;;;;;5091676;28;20433;-85
2021/07/08 06:52:38;;;;;;;4.60;3.78;;;;;;;;;;5091767;28;20375;-83
2021/07/08 06:55:05;;;;;;;7.15;3.90;;;;;;;;;;5091565;28;20417;-84
2021/07/08 06:57:31;;;;;;;6.07;3.90;;;;;;;;;;5091680;28;20434;-85
2021/07/08 06:59:57;;;;;;;6.13;4.30;;;;;;;;;;5073742;28;20380;-85
2021/07/08 07:02:23;;;;;;;5.90;4.47;;;;;;;;;;5073435;28;20371;-85
2021/07/08 07:04:49;;;;;;;6.60;4.03;;;;;;;;;;5073105;28;20882;-86
2021/07/08 07:07:15;;;;;;;5.03;4.20;;;;;;;;;;5090776;28;20416;-84
2021/07/08 07:09:42;;;;;;;4.40;3.97;;;;;;;;;;5091720;28;20429;-84
2021/07/08 07:12:08;;;;;;;5.10;3.60;;;;;;;;;;5073127;28;20943;-84
2021/07/08 07:14:34;;;;;;;5.47;3.90;;;;;;;;;;5072835;28;20380;-87
2021/07/08 07:17:00;;;;;;;3.97;3.42;;;;;;;;;;5072496;28;20377;-82
2021/07/08 07:19:27;;;;;;;4.57;3.78;;;;;;;;;;5073177;28;20421;-84
2021/07/08 07:21:54;;;;;;;4.18;3.75;;;;;;;;;;5072724;28;20377;-83
2021/07/08 07:24:20;;;;;;;4.15;3.75;;;;;;;;;;5072927;28;20399;-84
2021/07/08 07:26:46;;;;;;;6.28;3.80;;;;;;;;;;5090678;28;20388;-85
2021/07/08 07:29:12;;;;;;;5.80;3.80;;;;;;;;;;5072381;28;20400;-86
2021/07/08 07:31:38;;;;;;;7.73;4.60;;;;;;;;;;5090607;28;20387;-84
2021/07/08 07:34:04;;;;;;;9.15;4.85;;;;;;;;;;5091253;28;20380;-89
2021/07/08 07:36:30;;;;;;;5.70;4.25;;;;;;;;;;5090828;28;20400;-85
2021/07/08 07:38:56;;;;;;;7.05;4.35;;;;;;;;;;5072282;28;20890;-84
2021/07/08 07:41:22;;;;;;;5.75;4.55;;;;;;;;;;5073184;28;20447;-85
2021/07/08 07:43:48;;;;;;;4.82;4.22;;;;;;;;;;5072467;28;20430;-83
2021/07/08 07:46:14;;;;;;;11.20;4.10;;;;;;;;;;5090712;28;20405;-85
2021/07/08 07:48:40;;;;;;;5.65;3.75;;;;;;;;;;5071883;28;20409;-84
2021/07/08 07:51:06;;;;;;;5.75;3.80;;;;;;;;;;5072469;28;20399;-85
2021/07/08 07:53:33;;;;;;;5.03;3.97;;;;;;;;;;5072493;28;20421;-82
2021/07/08 07:55:59;;;;;;;4.50;3.67;;;;;;;;;;5090604;28;20854;-85
2021/07/08 07:58:27;;;;;;;5.50;3.63;;;;;;;;;;5072332;28;20377;-87
2021/07/08 08:00:57;;;;;;;12.02;4.20;;;;;;;;;;5089433;28;20377;-85
2021/07/08 08:03:23;;;;;;;5.55;3.08;;;;;;;;;;5071965;28;20491;-84
2021/07/08 08:08:35;;;;;;;5.13;3.25;;;;;;;;;;5090026;28;20521;-85
2021/07/08 08:11:02;;;;;;;4.38;3.33;;;;;;;;;;5090131;28;20379;-85
2021/07/08 08:13:28;;;;;;;5.30;3.33;;;;;;;;;;5071907;28;20837;-85
2021/07/08 08:15:55;;;;;;;3.97;2.83;;;;;;;;;;5071893;28;20373;-86
2021/07/08 08:18:21;;;;;;;11.77;3.53;;;;;;;;;;5072172;28;20383;-84
2021/07/08 08:20:48;;;;;;;6.67;3.07;;;;;;;;;;5072111;28;20376;-87
2021/07/08 08:23:14;;;;;;;4.93;3.60;;;;;;;;;;5072263;28;20377;-88
2021/07/08 08:25:40;;;;;;;4.88;3.25;;;;;;;;;;5072139;28;20363;-86
2021/07/08 08:28:07;;;;;;;5.22;3.30;;;;;;;;;;5090005;28;20476;-85
2021/07/08 08:30:33;;;;;;;8.13;3.27;;;;;;;;;;5071718;28;20427;-84
2021/07/08 08:32:59;;;;;;;4.43;2.90;;;;;;;;;;5090300;28;20882;-84
2021/07/08 08:35:24;;;;;;;6.32;3.05;;;;;;;;;;5071447;28;20360;-85
2021/07/08 08:37:51;;;;;;;7.45;2.90;;;;;;;;;;5089089;28;20850;-85
2021/07/08 08:40:17;;;;;;;3.73;2.70;;;;;;;;;;5071026;28;20380;-84
2021/07/08 08:42:43;;;;;;;3.73;2.80;;;;;;;;;;5071434;28;20364;-85
2021/07/08 08:45:12;;;;;;;3.92;2.25;;;;;;;;;;5089599;28;20369;-85
2021/07/08 08:47:57;;;;;;;4.78;2.20;;;;;;;;;;5090148;28;20495;-87
2021/07/08 08:50:23;;;;;;;3.27;2.13;;;;;;;;;;5071654;28;20396;-85
2021/07/08 08:52:50;;;;;;;3.35;2.10;;;;;;;;;;5071436;28;20373;-84
2021/07/08 08:55:16;;;;;;;4.03;2.67;;;;;;;;;;5071369;28;20760;-86
2021/07/08 08:57:45;;;;;;;4.90;2.60;;;;;;;;;;5089832;28;20364;-85
2021/07/08 09:00:25;;;;;;;4.20;2.05;;;;;;;;;;5089340;28;20850;-85
2021/07/08 09:02:58;;;;;;;2.78;2.05;;;;;;;;;;5088860;28;20437;-85
2021/07/08 09:05:24;;;;;;;3.05;2.05;;;;;;;;;;5068843;28;20363;-84
2021/07/08 09:07:50;;;;;;;3.40;1.85;;;;;;;;;;5076738;28;20909;-84
2021/07/08 09:10:16;;;;;;;4.05;2.40;;;;;;;;;;5070825;28;20376;-84
2021/07/08 09:12:43;;;;;;;4.75;2.15;;;;;;;;;;5051212;28;20840;-84
2021/07/08 09:15:17;;;;;;;5.43;2.07;;;;;;;;;;5073971;28;20374;-86
2021/07/08 09:17:43;;;;;;;3.85;2.42;;;;;;;;;;5075472;28;20382;-86
2021/07/08 09:20:12;;;;;;;3.72;2.20;;;;;;;;;;5069112;28;20457;-83
2021/07/08 09:22:38;;;;;;;4.50;2.10;;;;;;;;;;5068226;28;20405;-83
2021/07/08 09:25:19;;;;;;;2.53;1.67;;;;;;;;;;5050339;28;20374;-83
2021/07/08 09:27:49;;;;;;;2.50;1.90;;;;;;;;;;5065880;28;20440;-87
2021/07/08 09:30:28;;;;;;;3.85;2.40;;;;;;;;;;5067860;28;20405;-84
2021/07/08 09:32:54;;;;;;;2.45;1.90;;;;;;;;;;5067623;28;20393;-87
2021/07/08 09:35:33;;;;;;;4.30;2.05;;;;;;;;;;5046864;28;20385;-85
2021/07/08 09:38:23;;;;;;;2.10;1.85;;;;;;;;;;5064289;28;20377;-86
2021/07/08 09:41:04;;;;;;;2.90;1.92;;;;;;;;;;5046602;28;20516;-84
2021/07/08 09:43:30;;;;;;;3.27;1.97;;;;;;;;;;5045365;28;20382;-87
2021/07/08 09:45:56;;;;;;;3.85;2.00;;;;;;;;;;5064567;28;20421;-86
2021/07/08 09:48:23;;;;;;;5.00;2.30;;;;;;;;;;5046063;28;20400;-85
2021/07/08 09:50:48;;;;;;;3.35;2.10;;;;;;;;;;5052032;28;20388;-84
2021/07/08 09:53:32;;;;;;;4.13;2.22;;;;;;;;;;5071481;28;20457;-83
2021/07/08 09:58:58;;;;;;;3.63;2.10;;;;;;;;;;5068544;28;20366;-86
2021/07/08 10:01:24;;;;;;;4.10;2.28;;;;;;;;;;5051190;28;20883;-84
2021/07/08 10:03:51;;;;;;;2.70;2.22;;;;;;;;;;5053769;28;20378;-84
2021/07/08 10:06:17;;;;;;;5.38;2.10;;;;;;;;;;5075800;28;20374;-85
2021/07/08 10:08:44;;;;;;;3.42;2.00;;;;;;;;;;5065755;28;20401;-83
2021/07/08 10:11:12;;;;;;;7.33;2.50;;;;;;;;;;5052728;28;20370;-86
2021/07/08 10:13:39;;;;;;;3.70;2.35;;;;;;;;;;5088022;28;20389;-86
2021/07/08 10:16:05;;;;;;;4.15;2.45;;;;;;;;;;5088073;28;20461;-85
2021/07/08 10:18:33;;;;;;;4.75;2.55;;;;;;;;;;5072370;28;20374;-83
2021/07/08 10:21:00;;;;;;;3.80;2.40;;;;;;;;;;5087605;28;20717;-85
2021/07/08 10:23:27;;;;;;;3.90;2.85;;;;;;;;;;5071684;28;20370;-82
2021/07/08 10:25:53;;;;;;;5.15;2.50;;;;;;;;;;5072391;28;20797;-85
2021/07/08 10:28:19;;;;;;;5.13;2.70;;;;;;;;;;5087398;28;20408;-86
2021/07/08 10:30:46;;;;;;;4.20;2.65;;;;;;;;;;5087179;28;20378;-85
2021/07/08 10:33:12;;;;;;;7.07;3.10;;;;;;;;;;5087412;28;20374;-85
2021/07/08 10:35:38;;;;;;;5.67;2.73;;;;;;;;;;5087180;28;20382;-85
2021/07/08 10:38:23;;;;;;;4.57;2.78;;;;;;;;;;5071670;28;20427;-85
2021/07/08 10:40:49;;;;;;;4.00;2.90;;;;;;;;;;5086817;28;20461;-85
2021/07/08 10:43:16;;;;;;;4.75;2.80;;;;;;;;;;5076958;28;20482;-83
2021/07/08 10:45:43;;;;;;;3.08;2.72;;;;;;;;;;5051203;28;20386;-84
2021/07/08 10:48:10;;;;;;;4.65;2.70;;;;;;;;;;5068822;28;20444;-83
2021/07/08 10:50:40;;;;;;;5.28;3.00;;;;;;;;;;5070009;28;20875;-84
2021/07/08 10:53:15;;;;;;;5.85;2.90;;;;;;;;;;5069652;28;20421;-84
2021/07/08 10:55:42;;;;;;;6.20;2.88;;;;;;;;;;5070850;28;20366;-84
2021/07/08 10:58:28;;;;;;;4.90;3.17;;;;;;;;;;5053127;28;20879;-83
2021/07/08 11:00:54;;;;;;;4.77;3.20;;;;;;;;;;5071583;28;20450;-84
2021/07/08 11:03:38;;;;;;;4.50;2.78;;;;;;;;;;5071800;28;20720;-84
2021/07/08 11:06:21;;;;;;;4.50;2.92;;;;;;;;;;5054586;28;20496;-84
2021/07/08 11:08:57;;;;;;;4.72;2.80;;;;;;;;;;5053969;28;20431;-85
2021/07/08 11:11:23;;;;;;;4.80;2.85;;;;;;;;;;5053308;28;20393;-86
2021/07/08 11:13:49;;;;;;;6.93;3.10;;;;;;;;;;5053649;28;20380;-84
2021/07/08 11:16:34;;;;;;;4.67;3.10;;;;;;;;;;5053224;28;20395;-88
2021/07/08 11:19:03;;;;;;;6.25;3.10;;;;;;;;;;5053460;28;20366;-85
2021/07/08 11:21:50;;;;;;;3.63;2.78;;;;;;;;;;5053655;28;20382;-84
2021/07/08 11:24:19;;;;;;;4.28;2.72;;;;;;;;;;5071057;28;20362;-85
2021/07/08 11:26:52;;;;;;;5.47;2.95;;;;;;;;;;5053510;28;20382;-84
2021/07/08 11:29:36;;;;;;;4.20;2.90;;;;;;;;;;5057249;28;20366;-87
2021/07/08 11:32:21;;;;;;;6.07;3.10;;;;;;;;;;5059275;28;20867;-90
2021/07/08 11:34:55;;;;;;;4.65;3.00;;;;;;;;;;5056024;28;20725;-87
2021/07/08 11:37:24;;;;;;;7.78;3.13;;;;;;;;;;5055462;28;20400;-87
2021/07/08 11:40:00;;;;;;;6.75;3.03;;;;;;;;;;5054627;28;20382;-89
2021/07/08 11:42:30;;;;;;;4.25;2.80;;;;;;;;;;5055228;28;20431;-86
2021/07/08 11:44:56;;;;;;;5.20;3.03;;;;;;;;;;5071874;28;20426;-87
2021/07/08 11:47:23;;;;;;;6.13;3.20;;;;;;;;;;5054040;28;20405;-90
2021/07/08 11:49:49;;;;;;;5.00;2.90;;;;;;;;;;5057626;28;20453;-87
2021/07/08 11:52:29;;;;;;;5.57;3.20;;;;;;;;;;5057463;28;20748;-86
2021/07/08 11:54:59;;;;;;;4.50;3.10;;;;;;;;;;5056990;28;20378;-86
2021/07/08 11:57:26;;;;;;;5.32;3.10;;;;;;;;;;5053737;28;20710;-86
2021/07/08 11:59:53;;;;;;;3.53;3.08;;;;;;;;;;5071150;28;20370;-86
2021/07/08 12:02:32;;;;;;;5.75;3.28;;;;;;;;;;5072345;28;20391;-85
2021/07/08 12:05:31;;;;;;;4.97;3.10;;;;;;;;;;5069757;28;20378;-86
2021/07/08 12:08:04;;;;;;;3.90;2.88;;;;;;;;;;5024913;28;20588;-86
2021/07/08 12:10:31;;;;;;;4.93;3.45;;;;;;;;;;5051926;28;20752;-85
2021/07/08 12:12:58;;;;;;;5.50;3.53;;;;;;;;;;5051269;28;20432;-85
2021/07/08 12:15:25;;;;;;;5.93;3.67;;;;;;;;;;5052345;28;20398;-85
2021/07/08 12:17:54;;;;;;;4.75;3.10;;;;;;;;;;5069862;28;20405;-85
2021/07/08 12:20:21;;;;;;;7.10;3.50;;;;;;;;;;5051674;28;20424;-86
2021/07/08 12:22:57;;;;;;;6.20;3.58;;;;;;;;;;5070170;28;20365;-90
2021/07/08 12:25:25;;;;;;;4.18;3.08;;;;;;;;;;5076444;28;20382;-88
2021/07/08 12:27:52;;;;;;;6.53;3.10;;;;;;;;;;5052760;28;20410;-87
2021/07/08 12:30:23;;;;;;;5.13;2.92;;;;;;;;;;5051817;28;20388;-87
2021/07/08 12:32:49;;;;;;;4.40;3.30;;;;;;;;;;5052649;28;20906;-83
2021/07/08 12:35:16;;;;;;;5.47;3.60;;;;;;;;;;5052370;28;20888;-90
2021/07/08 12:37:42;;;;;;;4.03;3.10;;;;;;;;;;5070039;28;20431;-84
2021/07/08 12:40:14;;;;;;;4.38;3.45;;;;;;;;;;5051612;28;20374;-89
2021/07/08 12:42:44;;;;;;;7.18;3.20;;;;;;;;;;5052472;28;20804;-85
2021/07/08 12:45:11;;;;;;;5.00;3.25;;;;;;;;;;5052593;28;20864;-87
2021/07/08 12:47:38;;;;;;;4.10;3.00;;;;;;;;;;5051896;28;20441;-85
2021/07/08 12:50:05;;;;;;;5.22;3.50;;;;;;;;;;5070111;28;20386;-86
2021/07/08 12:52:31;;;;;;;8.37;3.50;;;;;;;;;;5069685;28;20374;-85
2021/07/08 12:54:57;;;;;;;4.32;3.03;;;;;;;;;;5071639;28;20427;-85
2021/07/08 12:57:23;;;;;;;6.33;3.40;;;;;;;;;;5055043;28;20382;-86
2021/07/08 12:59:54;;;;;;;5.93;3.60;;;;;;;;;;5053650;28;20385;-83
2021/07/08 13:02:21;;;;;;;3.78;3.03;;;;;;;;;;5073259;28;20366;-88
2021/07/08 13:04:47;;;;;;;3.53;2.85;;;;;;;;;;5054042;28;20412;-85
2021/07/08 13:07:13;;;;;;;3.53;2.95;;;;;;;;;;5051676;28;20414;-83
2021/07/08 13:09:39;;;;;;;5.37;3.50;;;;;;;;;;5069485;28;20370;-86
2021/07/08 13:12:18;;;;;;;4.97;3.35;;;;;;;;;;5050806;28;20443;-87
2021/07/08 13:14:44;;;;;;;7.93;3.17;;;;;;;;;;5050980;28;20479;-84
2021/07/08 13:17:11;;;;;;;3.33;3.03;;;;;;;;;;5068815;28;20420;-84
2021/07/08 13:19:41;;;;;;;6.85;3.17;;;;;;;;;;5050297;28;20783;-83
2021/07/08 13:22:12;;;;;;;5.35;3.10;;;;;;;;;;5050438;28;20382;-84
2021/07/08 13:24:38;;;;;;;4.00;3.03;;;;;;;;;;5052905;28;20377;-84
2021/07/08 13:27:04;;;;;;;4.55;3.08;;;;;;;;;;5054509;28;20443;-84
2021/07/08 13:29:30;;;;;;;7.53;3.53;;;;;;;;;;5054787;28;20794;-88
2021/07/08 13:31:56;;;;;;;5.85;3.45;;;;;;;;;;5054894;28;20402;-90
2021/07/08 13:34:26;;;;;;;5.65;3.40;;;;;;;;;;5055222;28;20432;-86
2021/07/08 13:36:53;;;;;;;7.70;3.45;;;;;;;;;;5055031;28;20374;-85
2021/07/08 13:39:23;;;;;;;3.22;3.00;;;;;;;;;;5072611;28;20370;-83
2021/07/08 13:41:50;;;;;;;5.43;3.28;;;;;;;;;;5054160;28;20461;-83
2021/07/08 13:44:28;;;;;;;6.05;4.15;;;;;;;;;;5054182;28;20374;-84
2021/07/08 13:47:04;;;;;;;7.80;3.85;;;;;;;;;;5054543;28;20931;-83
2021/07/08 13:49:32;;;;;;;5.40;3.72;;;;;;;;;;5054505;28;20473;-83
2021/07/08 13:51:59;;;;;;;5.22;3.63;;;;;;;;;;5073450;28;20370;-86
2021/07/08 13:54:26;;;;;;;5.88;4.00;;;;;;;;;;5056731;28;20872;-85
2021/07/08 13:56:53;;;;;;;4.10;3.70;;;;;;;;;;5056815;28;20374;-87
2021/07/08 13:59:19;;;;;;;4.07;3.35;;;;;;;;;;5057427;28;20374;-90
2021/07/08 14:01:47;;;;;;;6.75;4.68;;;;;;;;;;5075290;28;20377;-87
2021/07/08 14:04:13;;;;;;;4.68;3.78;;;;;;;;;;5056815;28;20374;-86
2021/07/08 14:06:39;;;;;;;4.63;3.92;;;;;;;;;;5055307;28;20397;-84
2021/07/08 14:09:05;;;;;;;7.97;4.30;;;;;;;;;;5055401;28;20413;-84
2021/07/08 14:11:31;;;;;;;7.93;4.18;;;;;;;;;;5056323;28;20382;-86
2021/07/08 14:13:57;;;;;;;4.20;3.80;;;;;;;;;;5054218;28;20371;-84